createdAt,value
2018-09-01T00:00:23.140Z,12.93
2018-09-01T00:01:23.150Z,12.88
2018-09-01T00:02:23.123Z,12.82
2018-09-01T00:03:23.134Z,12.84
2018-09-01T00:04:23.135Z,12.88
2018-09-01T00:05:23.115Z,12.93
2018-09-01T00:06:23.127Z,12.96
2018-09-01T00:07:23.122Z,13.02
2018-09-01T00:08:23.105Z,12.97
2018-09-01T00:09:23.107Z,13.03
2018-09-01T00:10:23.107Z,12.85
2018-09-01T00:11:23.141Z,12.95
2018-09-01T00:12:23.084Z,12.89
2018-09-01T00:13:23.097Z,13.00
2018-09-01T00:14:23.113Z,13.02
2018-09-01T00:15:23.085Z,13.00
2018-09-01T00:16:23.085Z,12.95
2018-09-01T00:17:23.070Z,13.07
2018-09-01T00:18:23.060Z,13.12
2018-09-01T00:19:23.070Z,13.04
2018-09-01T00:20:23.058Z,13.04
2018-09-01T00:21:23.049Z,13.02
2018-09-01T00:22:23.045Z,13.00
2018-09-01T00:23:23.039Z,13.04
2018-09-01T00:24:23.087Z,13.04
2018-09-01T00:25:23.057Z,13.00
2018-09-01T00:26:23.026Z,13.04
2018-09-01T00:27:23.027Z,13.12
2018-09-01T00:28:23.017Z,13.17
2018-09-01T00:29:23.053Z,13.20
2018-09-01T00:30:23.002Z,13.12
2018-09-01T00:31:22.997Z,13.12
2018-09-01T00:32:23.007Z,13.11
2018-09-01T00:33:22.993Z,13.14
2018-09-01T00:34:22.997Z,13.11
2018-09-01T00:35:22.992Z,13.14
2018-09-01T00:36:22.988Z,13.17
2018-09-01T00:37:23.000Z,13.14
2018-09-01T00:38:22.975Z,13.15
2018-09-01T00:39:22.977Z,13.02
2018-09-01T00:40:22.966Z,13.21
2018-09-01T00:41:22.968Z,13.18
2018-09-01T00:42:22.960Z,13.18
2018-09-01T00:43:22.949Z,13.22
2018-09-01T00:44:22.943Z,13.21
2018-09-01T00:45:22.947Z,13.25
2018-09-01T00:46:22.943Z,13.22
2018-09-01T00:47:22.936Z,13.24
2018-09-01T00:48:22.922Z,13.27
2018-09-01T00:49:22.926Z,13.24
2018-09-01T00:50:22.923Z,13.30
2018-09-01T00:51:22.913Z,13.24
2018-09-01T00:52:22.911Z,13.27
2018-09-01T00:53:22.908Z,13.14
2018-09-01T00:54:22.904Z,13.32
2018-09-01T00:55:22.890Z,13.17
2018-09-01T00:56:22.914Z,13.07
2018-09-01T00:57:22.887Z,13.24
2018-09-01T00:58:22.901Z,13.22
2018-09-01T00:59:22.875Z,13.32
2018-09-01T01:00:22.875Z,13.24
2018-09-01T01:01:22.903Z,13.22
2018-09-01T01:02:22.897Z,13.33
2018-09-01T01:03:22.866Z,13.27
2018-09-01T01:04:22.866Z,13.22
2018-09-01T01:05:22.852Z,13.22
2018-09-01T01:06:22.852Z,13.22
2018-09-01T01:07:22.844Z,13.15
2018-09-01T01:08:22.847Z,13.21
2018-09-01T01:09:22.833Z,13.30
2018-09-01T01:10:22.828Z,13.27
2018-09-01T01:11:22.822Z,13.18
2018-09-01T01:12:22.823Z,13.29
2018-09-01T01:13:22.819Z,13.21
2018-09-01T01:14:22.815Z,13.20
2018-09-01T01:15:22.812Z,13.11
2018-09-01T01:16:22.807Z,13.20
2018-09-01T01:17:22.793Z,13.09
2018-09-01T01:18:22.798Z,13.09
2018-09-01T01:19:22.801Z,12.99
2018-09-01T01:20:22.785Z,13.07
2018-09-01T01:21:22.798Z,13.07
2018-09-01T01:22:22.783Z,12.96
2018-09-01T01:23:22.774Z,13.00
2018-09-01T01:24:22.763Z,12.85
2018-09-01T01:25:22.763Z,12.82
2018-09-01T01:26:22.759Z,12.78
2018-09-01T01:27:22.756Z,12.78
2018-09-01T01:28:22.749Z,12.70
2018-09-01T01:29:22.744Z,12.74
2018-09-01T01:30:22.763Z,12.81
2018-09-01T02:06:10.270Z,12.75
2018-09-01T02:07:10.225Z,12.75
2018-09-01T02:09:03.195Z,12.85
2018-09-01T02:10:03.163Z,12.81
2018-09-01T02:11:56.074Z,12.78
2018-09-01T02:12:56.048Z,12.79
2018-09-01T02:14:48.984Z,12.84
2018-09-01T02:15:48.955Z,12.81
2018-09-01T02:17:41.922Z,12.88
2018-09-01T02:18:41.909Z,12.92
2018-09-01T02:20:34.840Z,12.89
2018-09-01T02:21:34.796Z,12.93
2018-09-01T02:23:27.748Z,12.95
2018-09-01T02:24:27.731Z,12.96
2018-09-01T02:26:20.733Z,12.96
2018-09-01T02:27:20.722Z,12.85
2018-09-01T02:29:13.718Z,12.96
2018-09-01T02:30:13.691Z,12.88
2018-09-01T02:32:06.687Z,12.88
2018-09-01T02:33:06.677Z,13.03
2018-09-01T02:34:59.684Z,12.96
2018-09-01T02:35:59.654Z,12.96
2018-09-01T02:37:52.686Z,12.96
2018-09-01T02:38:52.673Z,13.02
2018-09-01T02:39:52.679Z,13.00
2018-09-01T02:40:52.661Z,13.02
2018-09-01T02:41:52.671Z,13.11
2018-09-01T02:42:52.667Z,12.99
2018-09-01T02:43:52.657Z,12.93
2018-09-01T02:44:52.649Z,12.99
2018-09-01T02:45:52.649Z,13.04
2018-09-01T02:46:52.649Z,13.02
2018-09-01T02:47:52.644Z,12.92
2018-09-01T02:48:52.630Z,12.93
2018-09-01T02:49:52.635Z,13.02
2018-09-01T02:50:52.623Z,12.99
2018-09-01T02:51:52.617Z,12.99
2018-09-01T02:52:52.609Z,12.99
2018-09-01T02:53:52.619Z,12.93
2018-09-01T02:54:52.613Z,12.97
2018-09-01T02:55:52.612Z,12.97
2018-09-01T02:56:52.600Z,12.96
2018-09-01T02:57:52.597Z,12.96
2018-09-01T02:58:52.589Z,12.88
2018-09-01T02:59:52.585Z,12.97
2018-09-01T03:00:52.585Z,12.95
2018-09-01T03:01:52.577Z,13.02
2018-09-01T03:02:52.581Z,12.97
2018-09-01T03:03:52.573Z,12.87
2018-09-01T03:04:52.571Z,12.89
2018-09-01T03:05:52.555Z,12.93
2018-09-01T03:06:52.555Z,12.95
2018-09-01T03:07:52.559Z,12.93
2018-09-01T03:08:52.551Z,12.97
2018-09-01T03:09:52.544Z,12.92
2018-09-01T03:10:52.538Z,12.85
2018-09-01T03:11:52.535Z,12.95
2018-09-01T03:12:52.524Z,12.92
2018-09-01T03:13:52.529Z,12.99
2018-09-01T03:14:52.527Z,12.88
2018-09-01T03:15:52.515Z,12.93
2018-09-01T03:16:52.515Z,12.85
2018-09-01T03:17:52.507Z,12.92
2018-09-01T03:18:52.507Z,12.88
2018-09-01T03:19:52.505Z,12.92
2018-09-01T03:20:52.507Z,12.95
2018-09-01T03:21:52.495Z,12.92
2018-09-01T03:22:52.495Z,12.88
2018-09-01T03:23:52.483Z,12.92
2018-09-01T03:24:52.479Z,12.82
2018-09-01T03:25:52.469Z,12.88
2018-09-01T03:26:52.462Z,12.92
2018-09-01T03:27:52.457Z,12.85
2018-09-01T03:28:52.468Z,12.93
2018-09-01T03:29:52.453Z,12.85
2018-09-01T03:30:52.453Z,12.97
2018-09-01T03:31:52.453Z,12.87
2018-09-01T03:32:52.447Z,12.93
2018-09-01T03:33:52.440Z,12.92
2018-09-01T03:34:52.441Z,12.89
2018-09-01T03:35:52.427Z,12.87
2018-09-01T03:36:52.432Z,12.92
2018-09-01T03:37:52.426Z,12.88
2018-09-01T03:38:52.420Z,12.88
2018-09-01T03:39:52.412Z,12.88
2018-09-01T03:40:52.419Z,12.96
2018-09-01T03:41:52.407Z,12.97
2018-09-01T03:42:52.402Z,12.88
2018-09-01T03:43:52.392Z,12.89
2018-09-01T03:44:52.398Z,12.93
2018-09-01T03:45:52.378Z,12.85
2018-09-01T03:46:52.381Z,12.92
2018-09-01T03:47:52.379Z,12.84
2018-09-01T03:48:52.373Z,13.00
2018-09-01T03:49:52.360Z,12.87
2018-09-01T03:50:52.370Z,12.85
2018-09-01T03:51:52.355Z,12.89
2018-09-01T03:52:52.364Z,12.97
2018-09-01T03:53:52.351Z,12.92
2018-09-01T03:54:52.406Z,12.89
2018-09-01T03:55:52.340Z,12.95
2018-09-01T03:56:52.341Z,12.85
2018-09-01T03:57:52.331Z,12.87
2018-09-01T03:58:52.332Z,12.95
2018-09-01T03:59:52.328Z,12.82
2018-09-01T04:00:52.316Z,12.85
2018-09-01T04:01:52.310Z,12.87
2018-09-01T04:02:52.317Z,12.93
2018-09-01T04:03:52.303Z,12.87
2018-09-01T04:04:52.292Z,12.87
2018-09-01T04:05:52.295Z,12.85
2018-09-01T04:06:52.294Z,12.84
2018-09-01T04:07:52.290Z,12.84
2018-09-01T04:08:52.288Z,12.87
2018-09-01T04:09:52.274Z,12.89
2018-09-01T04:10:52.273Z,12.84
2018-09-01T04:11:52.273Z,12.84
2018-09-01T04:12:52.269Z,12.84
2018-09-01T04:13:52.265Z,12.77
2018-09-01T04:14:52.264Z,12.88
2018-09-01T04:15:52.256Z,12.84
2018-09-01T04:16:52.247Z,12.87
2018-09-01T04:17:52.238Z,12.85
2018-09-01T04:18:52.240Z,12.88
2018-09-01T04:19:52.229Z,12.85
2018-09-01T04:20:52.238Z,12.85
2018-09-01T04:21:52.216Z,12.85
2018-09-01T04:22:52.225Z,12.93
2018-09-01T04:23:52.214Z,12.84
2018-09-01T04:24:52.216Z,12.88
2018-09-01T04:25:52.215Z,12.84
2018-09-01T04:26:52.200Z,12.82
2018-09-01T04:27:52.200Z,12.87
2018-09-01T04:28:52.203Z,12.79
2018-09-01T04:29:52.188Z,12.92
2018-09-01T04:30:52.187Z,12.85
2018-09-01T04:31:52.224Z,12.87
2018-09-01T04:32:52.177Z,12.88
2018-09-01T04:33:52.181Z,12.84
2018-09-01T04:34:52.166Z,12.87
2018-09-01T04:35:52.168Z,12.88
2018-09-01T04:36:52.156Z,12.85
2018-09-01T04:37:52.157Z,12.84
2018-09-01T04:38:52.152Z,12.81
2018-09-01T04:39:52.144Z,12.82
2018-09-01T04:40:52.133Z,12.81
2018-09-01T04:41:52.145Z,12.88
2018-09-01T04:42:52.130Z,12.84
2018-09-01T04:43:52.137Z,12.87
2018-09-01T04:44:52.132Z,12.85
2018-09-01T04:45:52.118Z,12.93
2018-09-01T04:46:52.121Z,12.88
2018-09-01T04:47:52.113Z,12.88
2018-09-01T04:48:52.152Z,12.87
2018-09-01T04:49:52.105Z,12.87
2018-09-01T04:50:52.101Z,12.87
2018-09-01T04:51:52.100Z,12.81
2018-09-01T04:52:52.092Z,12.84
2018-09-01T04:53:52.080Z,12.81
2018-09-01T04:54:52.083Z,12.84
2018-09-01T04:55:52.072Z,12.89
2018-09-01T04:56:52.070Z,12.89
2018-09-01T04:57:52.065Z,12.79
2018-09-01T04:58:52.058Z,12.92
2018-09-01T04:59:52.142Z,12.84
2018-09-01T05:00:52.062Z,12.82
2018-09-01T05:01:52.038Z,12.82
2018-09-01T05:02:52.041Z,12.82
2018-09-01T05:03:52.043Z,12.84
2018-09-01T05:04:52.039Z,12.84
2018-09-01T05:05:52.019Z,12.81
2018-09-01T05:06:52.034Z,12.84
2018-09-01T05:07:52.010Z,12.85
2018-09-01T05:08:52.009Z,12.88
2018-09-01T05:09:52.005Z,12.84
2018-09-01T05:10:52.005Z,12.85
2018-09-01T05:11:51.998Z,12.87
2018-09-01T05:12:51.997Z,12.82
2018-09-01T05:13:51.995Z,12.84
2018-09-01T05:14:51.982Z,12.79
2018-09-01T05:15:51.974Z,12.89
2018-09-01T05:16:51.977Z,12.85
2018-09-01T05:17:51.969Z,12.85
2018-09-01T05:18:51.977Z,12.87
2018-09-01T05:19:51.972Z,12.81
2018-09-01T05:20:51.956Z,12.87
2018-09-01T05:21:51.968Z,12.93
2018-09-01T05:22:51.950Z,12.85
2018-09-01T05:23:51.956Z,12.85
2018-09-01T05:24:51.942Z,12.87
2018-09-01T05:25:51.950Z,12.88
2018-09-01T05:26:51.934Z,12.87
2018-09-01T05:27:51.931Z,12.85
2018-09-01T05:28:51.925Z,12.89
2018-09-01T05:29:51.918Z,12.87
2018-09-01T05:30:51.916Z,12.84
2018-09-01T05:31:51.910Z,12.82
2018-09-01T05:32:51.914Z,12.95
2018-09-01T05:33:51.908Z,12.87
2018-09-01T05:34:51.893Z,12.89
2018-09-01T05:35:51.910Z,12.87
2018-09-01T05:36:51.894Z,12.87
2018-09-01T05:37:51.872Z,12.85
2018-09-01T05:38:51.893Z,12.93
2018-09-01T05:39:51.873Z,12.89
2018-09-01T05:40:51.875Z,12.84
2018-09-01T05:41:51.863Z,12.87
2018-09-01T05:42:51.850Z,12.85
2018-09-01T05:43:51.860Z,12.85
2018-09-01T05:44:51.856Z,12.85
2018-09-01T05:45:51.849Z,12.89
2018-09-01T05:46:51.838Z,12.84
2018-09-01T05:47:51.845Z,12.88
2018-09-01T05:48:51.839Z,12.84
2018-09-01T05:49:51.823Z,12.84
2018-09-01T05:50:51.954Z,12.93
2018-09-01T05:51:51.825Z,12.95
2018-09-01T05:52:51.820Z,12.95
2018-09-01T05:53:51.814Z,12.89
2018-09-01T05:54:51.811Z,12.84
2018-09-01T05:55:51.795Z,12.93
2018-09-01T05:56:51.805Z,12.85
2018-09-01T05:57:51.792Z,12.89
2018-09-01T05:58:51.783Z,12.81
2018-09-01T05:59:51.791Z,12.88
2018-09-01T06:00:51.787Z,12.95
2018-09-01T06:01:51.775Z,12.88
2018-09-01T06:02:51.779Z,12.88
2018-09-01T06:03:51.768Z,12.95
2018-09-01T06:04:51.766Z,12.93
2018-09-01T06:05:51.771Z,12.95
2018-09-01T06:06:51.759Z,12.97
2018-09-01T06:07:51.753Z,12.88
2018-09-01T06:08:51.739Z,12.93
2018-09-01T06:09:51.745Z,12.93
2018-09-01T06:10:51.734Z,12.78
2018-09-01T06:11:51.737Z,12.93
2018-09-01T06:12:51.737Z,13.02
2018-09-01T06:13:51.730Z,12.93
2018-09-01T06:14:51.718Z,12.96
2018-09-01T06:15:51.716Z,12.95
2018-09-01T06:16:51.716Z,12.99
2018-09-01T06:17:51.789Z,12.88
2018-09-01T06:18:51.709Z,12.95
2018-09-01T06:19:51.693Z,12.96
2018-09-01T06:20:51.694Z,12.93
2018-09-01T06:21:51.706Z,12.93
2018-09-01T06:22:51.685Z,12.95
2018-09-01T06:23:51.692Z,12.93
2018-09-01T06:24:51.721Z,12.93
2018-09-01T06:25:51.668Z,13.00
2018-09-01T06:26:51.674Z,12.92
2018-09-01T06:27:51.665Z,12.92
2018-09-01T06:28:51.656Z,13.00
2018-09-01T06:29:51.663Z,12.96
2018-09-01T06:30:51.648Z,12.93
2018-09-01T06:31:51.638Z,12.95
2018-09-01T06:32:51.681Z,12.99
2018-09-01T06:33:51.636Z,13.00
2018-09-01T06:34:51.634Z,12.89
2018-09-01T06:35:51.625Z,13.00
2018-09-01T06:36:51.626Z,12.95
2018-09-01T06:37:51.622Z,12.93
2018-09-01T06:38:51.618Z,12.97
2018-09-01T06:39:51.613Z,12.97
2018-09-01T06:40:51.612Z,12.88
2018-09-01T06:41:51.614Z,12.84
2018-09-01T06:42:51.617Z,12.89
2018-09-01T06:43:51.606Z,13.00
2018-09-01T06:44:51.587Z,12.97
2018-09-01T06:45:51.590Z,12.96
2018-09-01T06:46:51.580Z,13.02
2018-09-01T06:47:51.569Z,13.03
2018-09-01T06:48:51.590Z,12.92
2018-09-01T06:49:51.570Z,12.89
2018-09-01T06:50:51.582Z,12.97
2018-09-01T06:51:51.566Z,13.04
2018-09-01T06:52:51.552Z,12.87
2018-09-01T06:53:51.550Z,12.93
2018-09-01T06:54:51.549Z,12.95
2018-09-01T06:55:51.538Z,12.89
2018-09-01T06:56:51.543Z,12.96
2018-09-01T06:57:51.529Z,12.93
2018-09-01T06:58:51.524Z,12.99
2018-09-01T06:59:51.523Z,12.97
2018-09-01T07:00:51.526Z,12.87
2018-09-01T07:01:51.521Z,12.92
2018-09-01T07:02:51.513Z,12.96
2018-09-01T07:03:51.507Z,12.85
2018-09-01T07:04:51.507Z,12.96
2018-09-01T07:05:51.506Z,13.02
2018-09-01T07:06:51.502Z,12.97
2018-09-01T07:07:51.491Z,13.00
2018-09-01T07:08:51.538Z,12.89
2018-09-01T07:09:51.491Z,12.92
2018-09-01T07:10:51.472Z,12.85
2018-09-01T07:11:51.471Z,12.93
2018-09-01T07:12:51.471Z,13.04
2018-09-01T07:13:51.468Z,13.02
2018-09-01T07:14:51.456Z,13.04
2018-09-01T07:15:51.460Z,13.00
2018-09-01T07:16:51.462Z,12.96
2018-09-01T07:17:51.442Z,13.02
2018-09-01T07:18:51.438Z,13.00
2018-09-01T07:19:51.445Z,13.02
2018-09-01T07:20:51.430Z,13.07
2018-09-01T07:21:51.437Z,13.00
2018-09-01T07:22:51.431Z,12.97
2018-09-01T07:23:51.421Z,13.02
2018-09-01T07:24:51.423Z,13.04
2018-09-01T07:25:51.409Z,13.02
2018-09-01T07:26:51.426Z,13.09
2018-09-01T07:27:51.409Z,13.09
2018-09-01T07:28:51.398Z,12.97
2018-09-01T07:29:51.422Z,13.15
2018-09-01T07:30:51.670Z,13.12
2018-09-01T07:31:51.410Z,13.07
2018-09-01T07:32:51.395Z,13.20
2018-09-01T07:33:51.380Z,13.25
2018-09-01T07:34:51.379Z,13.24
2018-09-01T07:35:51.382Z,13.29
2018-09-01T07:36:51.372Z,13.37
2018-09-01T07:37:51.373Z,13.38
2018-09-01T07:38:51.364Z,13.46
2018-09-01T07:39:51.357Z,13.43
2018-09-01T07:40:51.361Z,13.51
2018-09-01T07:41:51.352Z,13.52
2018-09-01T07:42:51.349Z,13.54
2018-09-01T07:43:51.345Z,13.63
2018-09-01T07:44:51.349Z,13.62
2018-09-01T07:45:51.338Z,13.56
2018-09-01T07:46:51.336Z,13.61
2018-09-01T07:47:51.334Z,13.58
2018-09-01T07:48:51.331Z,13.58
2018-09-01T07:49:51.384Z,13.58
2018-09-01T07:50:51.325Z,13.70
2018-09-01T07:51:51.317Z,13.83
2018-09-01T07:52:51.323Z,13.79
2018-09-01T07:53:51.315Z,13.76
2018-09-01T07:54:51.317Z,13.83
2018-09-01T07:55:51.328Z,13.81
2018-09-01T07:56:51.309Z,13.83
2018-09-01T07:57:51.325Z,13.79
2018-09-01T07:58:51.295Z,13.84
2018-09-01T07:59:51.314Z,13.88
2018-09-01T08:00:51.300Z,13.95
2018-09-01T08:01:51.296Z,13.84
2018-09-01T08:02:51.287Z,13.63
2018-09-01T08:03:51.284Z,13.79
2018-09-01T08:04:51.286Z,13.84
2018-09-01T08:05:51.277Z,13.70
2018-09-01T08:06:51.281Z,13.77
2018-09-01T08:07:51.295Z,13.81
2018-09-01T08:08:51.273Z,13.98
2018-09-01T08:09:51.260Z,14.10
2018-09-01T08:10:51.275Z,14.10
2018-09-01T08:11:51.275Z,13.98
2018-09-01T08:12:51.264Z,13.91
2018-09-01T08:13:51.302Z,13.94
2018-09-01T08:14:51.265Z,13.88
2018-09-01T08:15:51.257Z,13.84
2018-09-01T08:16:51.254Z,13.96
2018-09-01T08:17:51.244Z,14.06
2018-09-01T08:18:51.244Z,13.98
2018-09-01T08:19:51.243Z,13.89
2018-09-01T08:20:51.230Z,13.89
2018-09-01T08:21:51.229Z,13.96
2018-09-01T08:22:51.233Z,14.06
2018-09-01T08:23:51.233Z,14.12
2018-09-01T08:24:51.233Z,14.01
2018-09-01T08:25:51.222Z,14.02
2018-09-01T08:26:51.227Z,13.96
2018-09-01T08:27:51.232Z,13.94
2018-09-01T08:28:51.218Z,13.89
2018-09-01T08:29:51.214Z,13.76
2018-09-01T08:30:51.216Z,13.69
2018-09-01T08:31:51.212Z,13.77
2018-09-01T08:32:51.211Z,13.65
2018-09-01T08:33:51.221Z,13.58
2018-09-01T08:34:51.194Z,13.59
2018-09-01T08:35:51.194Z,13.56
2018-09-01T08:36:51.192Z,13.55
2018-09-01T08:37:51.194Z,13.43
2018-09-01T08:38:51.191Z,13.41
2018-09-01T08:39:51.189Z,13.38
2018-09-01T08:40:51.172Z,13.44
2018-09-01T08:41:51.187Z,13.20
2018-09-01T08:42:51.172Z,13.36
2018-09-01T08:43:51.171Z,13.41
2018-09-01T08:44:51.167Z,13.44
2018-09-01T08:45:51.158Z,13.38
2018-09-01T08:46:51.157Z,13.37
2018-09-01T08:47:51.145Z,13.43
2018-09-01T08:48:51.146Z,13.33
2018-09-01T08:49:51.146Z,13.37
2018-09-01T08:50:51.146Z,13.40
2018-09-01T08:51:51.142Z,13.36
2018-09-01T08:52:51.135Z,13.33
2018-09-01T08:53:51.136Z,13.25
2018-09-01T08:54:51.129Z,13.27
2018-09-01T08:55:51.125Z,13.30
2018-09-01T08:56:51.121Z,13.37
2018-09-01T08:57:51.122Z,13.40
2018-09-01T08:58:51.108Z,13.38
2018-09-01T08:59:51.126Z,13.43
2018-09-01T09:00:51.101Z,13.46
2018-09-01T09:01:51.097Z,13.38
2018-09-01T09:02:51.101Z,13.44
2018-09-01T09:03:51.088Z,13.36
2018-09-01T09:04:51.091Z,13.44
2018-09-01T09:05:51.084Z,13.47
2018-09-01T09:06:51.083Z,13.51
2018-09-01T09:07:51.078Z,13.55
2018-09-01T09:08:51.074Z,13.44
2018-09-01T09:09:51.071Z,13.49
2018-09-01T09:10:51.071Z,13.49
2018-09-01T09:11:51.062Z,13.43
2018-09-01T09:12:51.053Z,13.38
2018-09-01T09:13:51.059Z,13.37
2018-09-01T09:14:51.051Z,13.44
2018-09-01T09:15:51.049Z,13.54
2018-09-01T09:16:51.039Z,13.55
2018-09-01T09:17:51.043Z,13.38
2018-09-01T09:18:51.035Z,13.47
2018-09-01T09:19:51.036Z,13.43
2018-09-01T09:20:51.032Z,13.44
2018-09-01T09:21:51.033Z,13.36
2018-09-01T09:22:51.017Z,13.47
2018-09-01T09:23:51.022Z,13.38
2018-09-01T09:24:51.018Z,13.40
2018-09-01T09:25:51.007Z,13.36
2018-09-01T09:26:51.015Z,13.37
2018-09-01T09:27:50.999Z,13.37
2018-09-01T09:28:50.997Z,13.41
2018-09-01T09:29:50.990Z,13.43
2018-09-01T09:30:50.996Z,13.43
2018-09-01T09:31:50.980Z,13.51
2018-09-01T09:32:50.982Z,13.46
2018-09-01T09:33:50.972Z,13.46
2018-09-01T09:34:50.981Z,13.54
2018-09-01T09:35:50.975Z,13.51
2018-09-01T09:36:50.971Z,13.59
2018-09-01T09:37:50.962Z,13.62
2018-09-01T09:38:50.965Z,13.65
2018-09-01T09:39:50.955Z,13.54
2018-09-01T09:40:50.956Z,13.58
2018-09-01T09:41:51.002Z,13.56
2018-09-01T09:42:50.944Z,13.69
2018-09-01T09:43:50.942Z,13.69
2018-09-01T09:44:50.947Z,13.77
2018-09-01T09:45:50.935Z,13.74
2018-09-01T09:46:50.926Z,13.81
2018-09-01T09:47:50.931Z,13.63
2018-09-01T09:48:50.923Z,13.65
2018-09-01T09:49:50.924Z,13.58
2018-09-01T09:50:50.918Z,13.63
2018-09-01T09:51:50.916Z,13.65
2018-09-01T09:52:50.931Z,13.67
2018-09-01T09:53:50.902Z,13.71
2018-09-01T09:54:50.899Z,13.63
2018-09-01T09:55:50.904Z,13.67
2018-09-01T09:56:50.892Z,13.73
2018-09-01T09:57:50.890Z,13.81
2018-09-01T09:58:50.886Z,13.77
2018-09-01T09:59:50.882Z,13.84
2018-09-01T10:00:50.885Z,13.84
2018-09-01T10:01:50.869Z,13.84
2018-09-01T10:02:50.863Z,13.77
2018-09-01T10:03:50.875Z,13.89
2018-09-01T10:04:50.865Z,13.95
2018-09-01T10:05:50.857Z,13.91
2018-09-01T10:06:50.853Z,13.98
2018-09-01T10:07:50.856Z,13.96
2018-09-01T10:08:50.847Z,14.09
2018-09-01T10:09:50.844Z,14.12
2018-09-01T10:10:50.882Z,14.16
2018-09-01T10:11:50.839Z,14.25
2018-09-01T10:12:50.836Z,14.16
2018-09-01T10:13:50.832Z,14.19
2018-09-01T10:14:50.837Z,14.28
2018-09-01T10:15:50.904Z,14.25
2018-09-01T10:16:50.822Z,14.31
2018-09-01T10:17:50.820Z,14.14
2018-09-01T10:18:50.814Z,14.14
2018-09-01T10:19:50.815Z,14.24
2018-09-01T10:20:50.807Z,14.21
2018-09-01T10:21:50.805Z,14.42
2018-09-01T10:22:50.808Z,14.39
2018-09-01T10:23:50.801Z,14.31
2018-09-01T10:24:50.787Z,14.31
2018-09-01T10:25:50.784Z,14.38
2018-09-01T10:26:50.874Z,14.50
2018-09-01T10:27:50.785Z,14.53
2018-09-01T10:28:50.776Z,14.53
2018-09-01T10:29:50.779Z,14.52
2018-09-01T10:30:50.773Z,14.44
2018-09-01T10:31:50.779Z,14.57
2018-09-01T10:32:50.763Z,14.56
2018-09-01T10:33:50.773Z,14.62
2018-09-01T10:34:50.766Z,14.67
2018-09-01T10:35:50.778Z,14.62
2018-09-01T10:36:50.758Z,14.71
2018-09-01T10:37:50.754Z,14.81
2018-09-01T10:38:50.754Z,14.67
2018-09-01T10:39:50.764Z,14.81
2018-09-01T10:40:50.752Z,14.67
2018-09-01T10:41:50.745Z,14.75
2018-09-01T10:42:50.741Z,14.84
2018-09-01T10:43:50.745Z,14.87
2018-09-01T10:44:50.746Z,14.93
2018-09-01T10:45:50.773Z,14.88
2018-09-01T10:46:50.732Z,14.83
2018-09-01T10:47:50.747Z,14.69
2018-09-01T10:48:50.733Z,14.78
2018-09-01T10:49:50.721Z,14.81
2018-09-01T10:50:50.848Z,14.78
2018-09-01T10:51:50.731Z,14.74
2018-09-01T10:52:50.714Z,14.75
2018-09-01T10:53:50.719Z,15.05
2018-09-01T10:54:50.727Z,15.11
2018-09-01T10:55:50.859Z,15.33
2018-09-01T10:56:50.711Z,15.30
2018-09-01T10:57:50.707Z,15.09
2018-09-01T10:58:50.738Z,15.20
2018-09-01T10:59:50.757Z,15.27
2018-09-01T11:00:50.697Z,15.30
2018-09-01T11:01:50.691Z,15.09
2018-09-01T11:02:50.706Z,14.93
2018-09-01T11:03:50.693Z,15.03
2018-09-01T11:04:50.692Z,15.01
2018-09-01T11:05:50.721Z,15.05
2018-09-01T11:06:50.691Z,14.95
2018-09-01T11:07:50.686Z,15.03
2018-09-01T11:08:50.696Z,15.02
2018-09-01T11:09:50.682Z,14.93
2018-09-01T11:10:50.672Z,14.90
2018-09-01T11:11:50.682Z,15.02
2018-09-01T11:12:50.668Z,14.91
2018-09-01T11:13:50.678Z,14.75
2018-09-01T11:14:50.672Z,14.78
2018-09-01T11:15:50.709Z,14.90
2018-09-01T11:16:50.663Z,14.75
2018-09-01T11:17:50.664Z,14.90
2018-09-01T11:18:50.664Z,14.90
2018-09-01T11:19:50.658Z,14.94
2018-09-01T11:20:50.703Z,15.05
2018-09-01T11:21:50.656Z,15.03
2018-09-01T11:22:50.650Z,15.08
2018-09-01T11:23:50.647Z,15.06
2018-09-01T11:24:50.646Z,15.08
2018-09-01T11:25:50.774Z,15.09
2018-09-01T11:26:50.641Z,15.06
2018-09-01T11:27:50.675Z,14.99
2018-09-01T11:28:50.643Z,14.91
2018-09-01T11:29:50.634Z,14.81
2018-09-01T11:30:50.632Z,14.91
2018-09-01T11:31:50.626Z,14.81
2018-09-01T11:32:50.628Z,14.81
2018-09-01T11:33:50.633Z,14.80
2018-09-01T11:34:50.618Z,14.75
2018-09-01T11:35:50.662Z,14.83
2018-09-01T11:36:50.651Z,14.87
2018-09-01T11:37:50.610Z,14.87
2018-09-01T11:38:50.610Z,15.08
2018-09-01T11:39:50.612Z,15.01
2018-09-01T11:40:50.604Z,15.11
2018-09-01T11:41:50.604Z,15.23
2018-09-01T11:42:50.685Z,15.20
2018-09-01T11:43:50.598Z,15.12
2018-09-01T11:44:50.600Z,15.49
2018-09-01T11:45:50.611Z,15.49
2018-09-01T11:46:50.597Z,15.64
2018-09-01T11:47:50.592Z,15.88
2018-09-01T11:48:50.625Z,16.00
2018-09-01T11:49:50.613Z,15.79
2018-09-01T11:50:50.627Z,15.64
2018-09-01T11:51:50.625Z,15.70
2018-09-01T11:52:50.632Z,15.76
2018-09-01T11:53:50.610Z,15.56
2018-09-01T11:54:50.586Z,15.43
2018-09-01T11:55:50.567Z,15.51
2018-09-01T11:56:50.570Z,15.42
2018-09-01T11:57:50.567Z,15.46
2018-09-01T11:58:50.733Z,15.43
2018-09-01T11:59:50.559Z,15.51
2018-09-01T12:00:50.561Z,15.64
2018-09-01T12:01:50.567Z,15.70
2018-09-01T12:02:50.564Z,15.68
2018-09-01T12:03:50.564Z,15.63
2018-09-01T12:04:50.562Z,15.72
2018-09-01T12:05:50.556Z,15.61
2018-09-01T12:06:50.568Z,15.68
2018-09-01T12:07:50.559Z,15.48
2018-09-01T12:08:50.575Z,15.41
2018-09-01T12:09:50.548Z,15.38
2018-09-01T12:10:50.549Z,15.49
2018-09-01T12:11:50.565Z,15.70
2018-09-01T12:12:50.552Z,15.72
2018-09-01T12:13:50.537Z,15.84
2018-09-01T12:14:50.546Z,15.75
2018-09-01T12:15:50.619Z,15.81
2018-09-01T12:16:50.543Z,15.78
2018-09-01T12:17:50.539Z,15.74
2018-09-01T12:18:50.529Z,15.67
2018-09-01T12:19:50.548Z,15.84
2018-09-01T12:20:50.535Z,15.81
2018-09-01T12:21:50.533Z,15.97
2018-09-01T12:22:50.531Z,15.99
2018-09-01T12:23:50.516Z,16.01
2018-09-01T12:24:50.517Z,15.97
2018-09-01T12:25:50.524Z,15.67
2018-09-01T12:26:50.522Z,15.72
2018-09-01T12:27:50.520Z,15.75
2018-09-01T12:28:50.509Z,15.51
2018-09-01T12:29:50.510Z,15.48
2018-09-01T12:30:50.516Z,15.59
2018-09-01T12:31:50.510Z,15.59
2018-09-01T12:32:50.514Z,15.52
2018-09-01T12:33:50.510Z,15.46
2018-09-01T12:34:50.504Z,15.35
2018-09-01T12:35:50.495Z,15.35
2018-09-01T12:36:50.508Z,15.36
2018-09-01T12:37:50.501Z,15.43
2018-09-01T12:38:50.505Z,15.43
2018-09-01T12:39:50.498Z,15.45
2018-09-01T12:40:50.485Z,15.51
2018-09-01T12:41:50.538Z,15.36
2018-09-01T12:42:50.483Z,15.33
2018-09-01T12:43:50.499Z,15.35
2018-09-01T12:44:50.487Z,15.28
2018-09-01T12:45:50.480Z,15.35
2018-09-01T12:46:50.467Z,15.35
2018-09-01T12:47:50.477Z,15.45
2018-09-01T12:48:50.519Z,15.41
2018-09-01T12:49:50.468Z,15.28
2018-09-01T12:50:50.466Z,15.35
2018-09-01T12:51:50.537Z,15.41
2018-09-01T12:52:50.483Z,15.38
2018-09-01T12:53:50.456Z,15.38
2018-09-01T12:54:50.453Z,15.51
2018-09-01T12:55:50.449Z,15.43
2018-09-01T12:56:50.446Z,15.52
2018-09-01T12:57:50.443Z,15.51
2018-09-01T12:58:50.438Z,15.51
2018-09-01T12:59:50.440Z,15.49
2018-09-01T13:00:50.521Z,15.45
2018-09-01T13:01:50.435Z,15.41
2018-09-01T13:02:50.426Z,15.42
2018-09-01T13:03:50.420Z,15.60
2018-09-01T13:04:50.414Z,15.54
2018-09-01T13:05:50.424Z,15.51
2018-09-01T13:06:50.415Z,15.63
2018-09-01T13:07:50.451Z,15.76
2018-09-01T13:08:50.409Z,15.76
2018-09-01T13:09:50.402Z,15.67
2018-09-01T13:10:50.403Z,15.81
2018-09-01T13:11:50.406Z,15.81
2018-09-01T13:12:50.393Z,15.72
2018-09-01T13:13:50.397Z,15.76
2018-09-01T13:14:50.396Z,15.93
2018-09-01T13:15:50.394Z,15.75
2018-09-01T13:16:50.389Z,15.70
2018-09-01T13:17:50.384Z,15.75
2018-09-01T13:18:50.379Z,15.72
2018-09-01T13:19:50.381Z,15.66
2018-09-01T13:20:50.372Z,15.74
2018-09-01T13:21:50.378Z,15.67
2018-09-01T13:22:50.368Z,15.46
2018-09-01T13:23:50.375Z,15.48
2018-09-01T13:24:50.372Z,15.45
2018-09-01T13:25:50.362Z,15.46
2018-09-01T13:26:50.359Z,15.51
2018-09-01T13:27:50.364Z,15.59
2018-09-01T13:28:50.392Z,15.66
2018-09-01T13:29:50.350Z,15.59
2018-09-01T13:30:50.359Z,15.57
2018-09-01T13:31:50.353Z,15.54
2018-09-01T13:32:50.353Z,15.48
2018-09-01T13:33:50.362Z,15.52
2018-09-01T13:34:50.341Z,15.60
2018-09-01T13:35:50.338Z,15.63
2018-09-01T13:36:50.361Z,15.66